createdAt,value
2022-12-14T00:00:20.154Z,-3.14
2022-12-14T00:01:20.078Z,-3.15
2022-12-14T00:02:20.137Z,-3.15
2022-12-14T00:03:20.192Z,-3.14
2022-12-14T00:04:20.511Z,-3.15
2022-12-14T00:05:20.100Z,-3.15
2022-12-14T00:06:20.099Z,-3.14
2022-12-14T00:07:20.082Z,-3.15
2022-12-14T00:08:20.082Z,-3.14
2022-12-14T00:09:20.114Z,-3.15
2022-12-14T00:10:20.091Z,-3.15
2022-12-14T00:11:20.109Z,-3.17
2022-12-14T00:12:20.112Z,-3.17
2022-12-14T00:13:20.083Z,-3.16
2022-12-14T00:14:20.084Z,-3.17
2022-12-14T00:15:20.095Z,-3.18
2022-12-14T00:16:20.172Z,-3.17
2022-12-14T00:17:20.118Z,-3.16
2022-12-14T00:18:22.621Z,-3.17
2022-12-14T00:19:20.116Z,-3.18
2022-12-14T00:20:20.111Z,-3.18
2022-12-14T00:21:20.121Z,-3.19
2022-12-14T00:22:20.092Z,-3.22
2022-12-14T00:23:20.089Z,-3.23
2022-12-14T00:24:20.096Z,-3.24
2022-12-14T00:25:20.148Z,-3.27
2022-12-14T00:26:20.123Z,-3.29
2022-12-14T00:27:20.117Z,-3.30
2022-12-14T00:28:20.140Z,-3.32
2022-12-14T00:29:20.148Z,-3.34
2022-12-14T00:30:20.230Z,-3.35
2022-12-14T00:31:20.247Z,-3.37
2022-12-14T00:32:20.193Z,-3.39
2022-12-14T00:33:20.178Z,-3.39
2022-12-14T00:34:20.212Z,-3.40
2022-12-14T00:35:20.267Z,-3.42
2022-12-14T00:36:20.248Z,-3.44
2022-12-14T00:37:20.267Z,-3.44
2022-12-14T00:38:20.312Z,-3.44
2022-12-14T00:39:20.293Z,-3.44
2022-12-14T00:40:20.302Z,-3.44
2022-12-14T00:41:20.318Z,-3.44
2022-12-14T00:42:20.306Z,-3.44
2022-12-14T00:43:20.330Z,-3.45
2022-12-14T00:44:20.322Z,-3.44
2022-12-14T00:45:20.365Z,-3.43
2022-12-14T00:46:20.418Z,-3.43
2022-12-14T00:47:20.371Z,-3.42
2022-12-14T00:48:20.399Z,-3.41
2022-12-14T00:49:20.406Z,-3.38
2022-12-14T00:50:20.410Z,-3.36
2022-12-14T00:51:20.427Z,-3.34
2022-12-14T00:52:20.432Z,-3.33
2022-12-14T00:53:20.440Z,-3.33
2022-12-14T00:54:20.448Z,-3.33
2022-12-14T00:55:20.484Z,-3.33
2022-12-14T00:56:20.517Z,-3.34
2022-12-14T00:57:20.511Z,-3.33
2022-12-14T00:58:20.505Z,-3.34
2022-12-14T00:59:25.678Z,-3.33
2022-12-14T01:00:20.530Z,-3.32
2022-12-14T01:01:20.649Z,-3.31
2022-12-14T01:02:20.577Z,-3.29
2022-12-14T01:03:20.575Z,-3.29
2022-12-14T01:04:20.573Z,-3.28
2022-12-14T01:05:20.542Z,-3.27
2022-12-14T01:06:20.530Z,-3.26
2022-12-14T01:07:20.582Z,-3.24
2022-12-14T01:08:20.506Z,-3.22
2022-12-14T01:09:20.530Z,-3.22
2022-12-14T01:10:21.386Z,-3.21
2022-12-14T01:11:20.545Z,-3.22
2022-12-14T01:12:20.512Z,-3.22
2022-12-14T01:13:20.532Z,-3.22
2022-12-14T01:14:20.533Z,-3.21
2022-12-14T01:15:20.531Z,-3.22
2022-12-14T01:16:20.566Z,-3.21
2022-12-14T01:17:20.567Z,-3.19
2022-12-14T01:18:20.528Z,-3.19
2022-12-14T01:19:20.530Z,-3.18
2022-12-14T01:20:20.521Z,-3.17
2022-12-14T01:21:20.519Z,-3.17
2022-12-14T01:22:20.510Z,-3.17
2022-12-14T01:23:20.571Z,-3.17
2022-12-14T01:24:20.548Z,-3.17
2022-12-14T01:25:20.535Z,-3.16
2022-12-14T01:26:20.536Z,-3.17
2022-12-14T01:27:20.574Z,-3.18
2022-12-14T01:28:20.539Z,-3.19
2022-12-14T01:29:20.536Z,-3.18
2022-12-14T01:30:20.563Z,-3.22
2022-12-14T01:31:20.587Z,-3.22
2022-12-14T01:32:20.555Z,-3.22
2022-12-14T01:33:20.555Z,-3.23
2022-12-14T01:34:20.527Z,-3.23
2022-12-14T01:35:20.524Z,-3.22
2022-12-14T01:36:20.525Z,-3.22
2022-12-14T01:37:20.568Z,-3.22
2022-12-14T01:38:20.537Z,-3.20
2022-12-14T01:39:20.569Z,-3.22
2022-12-14T01:40:20.536Z,-3.21
2022-12-14T01:41:20.523Z,-3.21
2022-12-14T01:42:20.539Z,-3.21
2022-12-14T01:43:20.563Z,-3.19
2022-12-14T01:44:20.597Z,-3.19
2022-12-14T01:45:20.567Z,-3.19
2022-12-14T01:46:20.623Z,-3.18
2022-12-14T01:47:20.558Z,-3.18
2022-12-14T01:48:20.531Z,-3.18
2022-12-14T01:49:20.546Z,-3.17
2022-12-14T01:50:20.564Z,-3.16
2022-12-14T01:51:20.606Z,-3.17
2022-12-14T01:52:20.563Z,-3.17
2022-12-14T01:53:20.547Z,-3.17
2022-12-14T01:54:20.568Z,-3.19
2022-12-14T01:55:20.577Z,-3.19
2022-12-14T01:56:20.567Z,-3.21
2022-12-14T01:57:20.554Z,-3.22
2022-12-14T01:58:20.556Z,-3.24
2022-12-14T01:59:20.559Z,-3.24
2022-12-14T02:00:20.578Z,-3.24
2022-12-14T02:01:20.725Z,-3.27
2022-12-14T02:02:20.695Z,-3.24
2022-12-14T02:03:20.595Z,-3.25
2022-12-14T02:04:20.558Z,-3.24
2022-12-14T02:05:20.586Z,-3.23
2022-12-14T02:06:20.586Z,-3.25
2022-12-14T02:07:20.571Z,-3.24
2022-12-14T02:08:20.569Z,-3.26
2022-12-14T02:09:20.577Z,-3.26
2022-12-14T02:10:20.593Z,-3.27
2022-12-14T02:11:20.610Z,-3.28
2022-12-14T02:12:20.572Z,-3.30
2022-12-14T02:13:20.564Z,-3.31
2022-12-14T02:14:20.561Z,-3.32
2022-12-14T02:15:20.566Z,-3.33
2022-12-14T02:16:20.701Z,-3.34
2022-12-14T02:17:20.577Z,-3.35
2022-12-14T02:18:20.569Z,-3.36
2022-12-14T02:19:20.589Z,-3.38
2022-12-14T02:20:20.560Z,-3.39
2022-12-14T02:21:20.621Z,-3.42
2022-12-14T02:22:20.564Z,-3.42
2022-12-14T02:23:20.558Z,-3.43
2022-12-14T02:24:20.570Z,-3.44
2022-12-14T02:25:20.564Z,-3.45
2022-12-14T02:26:20.601Z,-3.46
2022-12-14T02:27:20.568Z,-3.45
2022-12-14T02:28:20.565Z,-3.47
2022-12-14T02:29:20.588Z,-3.48
2022-12-14T02:30:20.592Z,-3.50
2022-12-14T02:31:20.682Z,-3.51
2022-12-14T02:32:20.593Z,-3.50
2022-12-14T02:33:20.596Z,-3.50
2022-12-14T02:34:20.603Z,-3.50
2022-12-14T02:35:20.576Z,-3.50
2022-12-14T02:36:20.609Z,-3.48
2022-12-14T02:37:20.590Z,-3.44
2022-12-14T02:38:20.583Z,-3.42
2022-12-14T02:39:20.595Z,-3.40
2022-12-14T02:40:20.594Z,-3.38
2022-12-14T02:41:20.596Z,-3.35
2022-12-14T02:42:20.601Z,-3.35
2022-12-14T02:43:20.600Z,-3.33
2022-12-14T02:44:20.597Z,-3.35
2022-12-14T02:45:20.600Z,-3.34
2022-12-14T02:46:20.642Z,-3.35
2022-12-14T02:47:20.594Z,-3.34
2022-12-14T02:48:20.588Z,-3.33
2022-12-14T02:49:20.588Z,-3.34
2022-12-14T02:50:20.605Z,-3.32
2022-12-14T02:51:20.581Z,-3.31
2022-12-14T02:52:20.604Z,-3.30
2022-12-14T02:53:20.593Z,-3.28
2022-12-14T02:54:20.619Z,-3.27
2022-12-14T02:55:20.591Z,-3.25
2022-12-14T02:56:20.623Z,-3.23
2022-12-14T02:57:20.633Z,-3.24
2022-12-14T02:58:20.623Z,-3.23
2022-12-14T02:59:20.594Z,-3.23
2022-12-14T03:00:20.607Z,-3.26
2022-12-14T03:01:20.677Z,-3.26
2022-12-14T03:02:20.738Z,-3.26
2022-12-14T03:03:20.589Z,-3.27
2022-12-14T03:04:20.616Z,-3.26
2022-12-14T03:05:20.594Z,-3.27
2022-12-14T03:06:20.612Z,-3.28
2022-12-14T03:07:20.618Z,-3.26
2022-12-14T03:08:20.658Z,-3.24
2022-12-14T03:09:20.621Z,-3.22
2022-12-14T03:10:20.601Z,-3.22
2022-12-14T03:11:20.609Z,-3.21
2022-12-14T03:12:20.633Z,-3.20
2022-12-14T03:13:20.630Z,-3.19
2022-12-14T03:14:20.866Z,-3.19
2022-12-14T03:15:20.619Z,-3.19
2022-12-14T03:16:20.649Z,-3.19
2022-12-14T03:17:20.651Z,-3.19
2022-12-14T03:18:20.630Z,-3.19
2022-12-14T03:19:20.630Z,-3.18
2022-12-14T03:20:20.620Z,-3.17
2022-12-14T03:21:20.621Z,-3.18
2022-12-14T03:22:20.651Z,-3.17
2022-12-14T03:23:20.614Z,-3.17
2022-12-14T03:24:20.625Z,-3.18
2022-12-14T03:25:20.660Z,-3.18
2022-12-14T03:26:20.640Z,-3.20
2022-12-14T03:27:20.630Z,-3.19
2022-12-14T03:28:20.633Z,-3.21
2022-12-14T03:29:20.627Z,-3.19
2022-12-14T03:30:37.192Z,-3.21
2022-12-14T03:31:20.659Z,-3.19
2022-12-14T03:32:20.695Z,-3.20
2022-12-14T03:33:20.628Z,-3.20
2022-12-14T03:34:20.645Z,-3.20
2022-12-14T03:35:20.633Z,-3.20
2022-12-14T03:36:20.640Z,-3.21
2022-12-14T03:37:20.649Z,-3.21
2022-12-14T03:38:20.851Z,-3.18
2022-12-14T03:39:20.654Z,-3.18
2022-12-14T03:40:20.659Z,-3.18
2022-12-14T03:41:20.649Z,-3.16
2022-12-14T03:42:20.670Z,-3.16
2022-12-14T03:43:20.652Z,-3.16
2022-12-14T03:44:20.663Z,-3.16
2022-12-14T03:45:20.651Z,-3.15
2022-12-14T03:46:20.653Z,-3.16
2022-12-14T03:47:20.666Z,-3.17
2022-12-14T03:48:20.668Z,-3.17
2022-12-14T03:49:20.637Z,-3.17
2022-12-14T03:50:20.663Z,-3.18
2022-12-14T03:51:20.644Z,-3.17
2022-12-14T03:52:20.635Z,-3.19
2022-12-14T03:53:20.647Z,-3.19
2022-12-14T03:54:20.653Z,-3.18
2022-12-14T03:55:20.658Z,-3.18
2022-12-14T03:56:20.651Z,-3.18
2022-12-14T03:57:20.649Z,-3.18
2022-12-14T03:58:20.661Z,-3.16
2022-12-14T03:59:20.674Z,-3.16
2022-12-14T04:00:20.667Z,-3.17
2022-12-14T04:01:20.725Z,-3.17
2022-12-14T04:02:20.812Z,-3.17
2022-12-14T04:03:20.720Z,-3.17
2022-12-14T04:04:20.667Z,-3.18
2022-12-14T04:05:20.646Z,-3.18
2022-12-14T04:06:20.672Z,-3.19
2022-12-14T04:07:20.669Z,-3.18
2022-12-14T04:08:20.665Z,-3.18
2022-12-14T04:09:20.668Z,-3.20
2022-12-14T04:10:20.694Z,-3.19
2022-12-14T04:11:20.654Z,-3.19
2022-12-14T04:12:20.658Z,-3.20
2022-12-14T04:13:20.663Z,-3.21
2022-12-14T04:14:20.664Z,-3.20
2022-12-14T04:15:20.668Z,-3.20
2022-12-14T04:16:20.674Z,-3.20
2022-12-14T04:17:20.666Z,-3.20
2022-12-14T04:18:20.678Z,-3.20
2022-12-14T04:19:20.682Z,-3.21
2022-12-14T04:20:20.678Z,-3.20
2022-12-14T04:21:20.672Z,-3.20
2022-12-14T04:22:20.720Z,-3.20
2022-12-14T04:23:20.747Z,-3.21
2022-12-14T04:24:20.667Z,-3.22
2022-12-14T04:25:20.690Z,-3.22
2022-12-14T04:26:20.670Z,-3.23
2022-12-14T04:27:20.665Z,-3.24
2022-12-14T04:28:20.683Z,-3.23
2022-12-14T04:29:20.705Z,-3.24
2022-12-14T04:30:20.690Z,-3.24
2022-12-14T04:31:20.705Z,-3.24
2022-12-14T04:32:20.704Z,-3.24
2022-12-14T04:33:20.723Z,-3.23
2022-12-14T04:34:20.694Z,-3.23
2022-12-14T04:35:20.712Z,-3.22
2022-12-14T04:36:20.692Z,-3.21
2022-12-14T04:37:20.695Z,-3.21
2022-12-14T04:38:20.711Z,-3.21
2022-12-14T04:39:20.682Z,-3.22
2022-12-14T04:40:20.697Z,-3.19
2022-12-14T04:41:20.670Z,-3.18
2022-12-14T04:42:20.719Z,-3.17
2022-12-14T04:43:20.741Z,-3.16
2022-12-14T04:44:20.697Z,-3.16
2022-12-14T04:45:20.694Z,-3.15
2022-12-14T04:46:20.723Z,-3.15
2022-12-14T04:47:20.690Z,-3.15
2022-12-14T04:48:20.717Z,-3.15
2022-12-14T04:49:20.709Z,-3.13
2022-12-14T04:50:20.697Z,-3.13
2022-12-14T04:51:20.708Z,-3.12
2022-12-14T04:52:20.688Z,-3.12
2022-12-14T04:53:20.708Z,-3.11
2022-12-14T04:54:20.708Z,-3.10
2022-12-14T04:55:20.725Z,-3.09
2022-12-14T04:56:20.697Z,-3.09
2022-12-14T04:57:20.691Z,-3.09
2022-12-14T04:58:20.691Z,-3.08
2022-12-14T04:59:20.720Z,-3.07
2022-12-14T05:00:20.705Z,-3.07
2022-12-14T05:01:20.854Z,-3.06
2022-12-14T05:02:20.812Z,-3.06
2022-12-14T05:03:20.711Z,-3.05
2022-12-14T05:04:20.712Z,-3.04
2022-12-14T05:05:20.708Z,-3.03
2022-12-14T05:06:20.696Z,-3.04
2022-12-14T05:07:20.729Z,-3.04
2022-12-14T05:08:20.706Z,-3.03
2022-12-14T05:09:20.738Z,-3.03
2022-12-14T05:10:20.735Z,-3.03
2022-12-14T05:11:51.882Z,-3.02
2022-12-14T05:12:20.720Z,-3.02
2022-12-14T05:13:20.736Z,-3.02
2022-12-14T05:14:20.707Z,-3.02
2022-12-14T05:15:20.706Z,-3.01
2022-12-14T05:16:20.744Z,-3.02
2022-12-14T05:17:20.709Z,-3.02
2022-12-14T05:18:20.689Z,-3.01
2022-12-14T05:19:20.726Z,-3.02
2022-12-14T05:20:20.704Z,-3.02
2022-12-14T05:21:20.759Z,-3.03
2022-12-14T05:22:20.729Z,-3.03
2022-12-14T05:23:20.740Z,-3.03
2022-12-14T05:24:20.703Z,-3.03
2022-12-14T05:25:20.738Z,-3.03
2022-12-14T05:26:20.737Z,-3.04
2022-12-14T05:27:20.735Z,-3.03
2022-12-14T05:28:20.735Z,-3.03
2022-12-14T05:29:20.785Z,-3.04
2022-12-14T05:30:20.849Z,-3.05
2022-12-14T05:31:20.722Z,-3.06
2022-12-14T05:32:20.731Z,-3.07
2022-12-14T05:33:20.735Z,-3.06
2022-12-14T05:34:23.454Z,-3.07
2022-12-14T05:35:20.766Z,-3.07
2022-12-14T05:36:20.820Z,-3.08
2022-12-14T05:37:20.818Z,-3.08
2022-12-14T05:38:20.779Z,-3.08
2022-12-14T05:39:20.781Z,-3.08
2022-12-14T05:40:20.824Z,-3.08
2022-12-14T05:41:20.832Z,-3.08
2022-12-14T05:42:20.819Z,-3.09
2022-12-14T05:43:20.856Z,-3.09
2022-12-14T05:44:20.854Z,-3.08
2022-12-14T05:45:20.889Z,-3.10
2022-12-14T05:46:21.034Z,-3.10
2022-12-14T05:47:20.890Z,-3.10
2022-12-14T05:48:20.902Z,-3.10
2022-12-14T05:49:20.929Z,-3.09
2022-12-14T05:50:20.923Z,-3.09
2022-12-14T05:51:20.972Z,-3.07
2022-12-14T05:52:20.958Z,-3.08
2022-12-14T05:53:20.955Z,-3.06
2022-12-14T05:54:20.968Z,-3.06
2022-12-14T05:55:20.998Z,-3.05
2022-12-14T05:56:21.054Z,-3.03
2022-12-14T05:57:21.011Z,-3.03
2022-12-14T05:58:21.013Z,-3.03
2022-12-14T05:59:21.062Z,-3.02
2022-12-14T06:00:21.047Z,-3.00
2022-12-14T06:01:21.096Z,-3.00
2022-12-14T06:02:21.230Z,-2.99
2022-12-14T06:03:21.095Z,-2.99
2022-12-14T06:04:21.193Z,-2.98
2022-12-14T06:05:21.119Z,-2.98
2022-12-14T06:06:21.126Z,-2.98
2022-12-14T06:07:26.025Z,-2.99
2022-12-14T06:08:21.128Z,-2.98
2022-12-14T06:09:21.113Z,-2.97
2022-12-14T06:10:21.146Z,-2.97
2022-12-14T06:11:21.130Z,-2.97
2022-12-14T06:12:21.165Z,-2.96
2022-12-14T06:13:21.115Z,-2.98
2022-12-14T06:14:21.124Z,-2.96
2022-12-14T06:15:21.163Z,-2.95
2022-12-14T06:16:21.265Z,-2.97
2022-12-14T06:17:21.129Z,-2.97
2022-12-14T06:18:21.140Z,-2.98
2022-12-14T06:19:21.146Z,-2.96
2022-12-14T06:20:21.148Z,-2.95
2022-12-14T06:21:21.150Z,-2.95
2022-12-14T06:22:21.153Z,-2.95
2022-12-14T06:23:21.143Z,-2.96
2022-12-14T06:24:21.137Z,-2.96
2022-12-14T06:25:21.163Z,-2.97
2022-12-14T06:26:21.185Z,-2.96
2022-12-14T06:27:21.161Z,-2.97
2022-12-14T06:28:21.136Z,-2.95
2022-12-14T06:29:21.135Z,-2.95
2022-12-14T06:30:21.154Z,-2.93
2022-12-14T06:31:21.170Z,-2.91
2022-12-14T06:32:21.134Z,-2.92
2022-12-14T06:33:21.153Z,-2.92
2022-12-14T06:34:26.360Z,-2.94
2022-12-14T06:35:21.176Z,-2.93
2022-12-14T06:36:21.142Z,-2.94
2022-12-14T06:37:21.180Z,-2.92
2022-12-14T06:38:21.148Z,-2.92
2022-12-14T06:39:21.144Z,-2.91
2022-12-14T06:40:21.190Z,-2.89
2022-12-14T06:41:21.216Z,-2.88
2022-12-14T06:42:21.146Z,-2.87
2022-12-14T06:43:21.149Z,-2.86
2022-12-14T06:44:21.155Z,-2.85
2022-12-14T06:45:21.186Z,-2.84
2022-12-14T06:46:21.278Z,-2.84
2022-12-14T06:47:21.145Z,-2.85
2022-12-14T06:48:21.202Z,-2.84
2022-12-14T06:49:21.149Z,-2.84
2022-12-14T06:50:21.166Z,-2.85
2022-12-14T06:51:21.164Z,-2.84
2022-12-14T06:52:26.419Z,-2.82
2022-12-14T06:53:21.145Z,-2.81
2022-12-14T06:54:21.172Z,-2.80
2022-12-14T06:55:21.174Z,-2.79
2022-12-14T06:56:21.187Z,-2.78
2022-12-14T06:57:21.206Z,-2.77
2022-12-14T06:58:21.170Z,-2.77
2022-12-14T06:59:21.173Z,-2.77
2022-12-14T07:00:21.156Z,-2.76
2022-12-14T07:01:21.279Z,-2.75
2022-12-14T07:02:21.382Z,-2.75
2022-12-14T07:03:21.200Z,-2.75
2022-12-14T07:04:21.392Z,-2.74
2022-12-14T07:05:21.184Z,-2.73
2022-12-14T07:06:21.176Z,-2.73
2022-12-14T07:07:21.197Z,-2.73
2022-12-14T07:08:21.178Z,-2.73
2022-12-14T07:09:21.189Z,-2.72
2022-12-14T07:10:21.216Z,-2.72
2022-12-14T07:11:21.182Z,-2.70
2022-12-14T07:12:21.213Z,-2.69
2022-12-14T07:13:21.187Z,-2.68
2022-12-14T07:14:21.157Z,-2.69
2022-12-14T07:15:21.179Z,-2.69
2022-12-14T07:16:21.299Z,-2.69
2022-12-14T07:17:21.225Z,-2.67
2022-12-14T07:18:21.166Z,-2.67
2022-12-14T07:19:21.180Z,-2.65
2022-12-14T07:20:21.169Z,-2.65
2022-12-14T07:21:21.191Z,-2.62
2022-12-14T07:22:21.212Z,-2.62
2022-12-14T07:23:24.754Z,-2.61
2022-12-14T07:24:21.255Z,-2.61
2022-12-14T07:25:21.185Z,-2.59
2022-12-14T07:26:21.196Z,-2.59
2022-12-14T07:27:21.204Z,-2.58
2022-12-14T07:28:21.202Z,-2.58
2022-12-14T07:29:21.190Z,-2.57
2022-12-14T07:30:21.191Z,-2.57
2022-12-14T07:31:21.263Z,-2.57
2022-12-14T07:32:21.200Z,-2.57
2022-12-14T07:33:21.214Z,-2.59
2022-12-14T07:34:21.220Z,-2.61
2022-12-14T07:35:21.197Z,-2.59
2022-12-14T07:36:21.260Z,-2.62
2022-12-14T07:37:21.227Z,-2.61
2022-12-14T07:38:21.183Z,-2.61
2022-12-14T07:39:21.191Z,-2.61
2022-12-14T07:40:21.206Z,-2.61
2022-12-14T07:41:22.982Z,-2.60
2022-12-14T07:42:21.201Z,-2.61
2022-12-14T07:43:21.198Z,-2.63
2022-12-14T07:44:21.183Z,-2.64
2022-12-14T07:45:21.197Z,-2.65
2022-12-14T07:46:21.375Z,-2.67
2022-12-14T07:47:21.231Z,-2.70
2022-12-14T07:48:21.244Z,-2.71
2022-12-14T07:49:21.195Z,-2.72
2022-12-14T07:50:21.215Z,-2.72
2022-12-14T07:51:21.225Z,-2.73
2022-12-14T07:52:21.200Z,-2.72
2022-12-14T07:53:21.225Z,-2.73
2022-12-14T07:54:21.202Z,-2.74
2022-12-14T07:55:21.205Z,-2.74
2022-12-14T07:56:21.220Z,-2.72
2022-12-14T07:57:21.208Z,-2.71
2022-12-14T07:58:21.248Z,-2.72
2022-12-14T07:59:21.242Z,-2.73
2022-12-14T08:00:21.242Z,-2.72
2022-12-14T08:01:21.408Z,-2.72
2022-12-14T08:02:21.282Z,-2.73
2022-12-14T08:03:21.226Z,-2.73
2022-12-14T08:04:21.284Z,-2.73
2022-12-14T08:05:21.226Z,-2.73
2022-12-14T08:06:21.229Z,-2.74
2022-12-14T08:07:21.215Z,-2.75
2022-12-14T08:08:21.245Z,-2.74
2022-12-14T08:09:21.224Z,-2.76
2022-12-14T08:10:21.241Z,-2.76
2022-12-14T08:11:21.227Z,-2.78
2022-12-14T08:12:21.232Z,-2.79
2022-12-14T08:13:21.220Z,-2.82
2022-12-14T08:14:21.290Z,-2.81
2022-12-14T08:15:21.221Z,-2.84
2022-12-14T08:16:21.338Z,-2.88
2022-12-14T08:17:21.233Z,-2.88
2022-12-14T08:18:21.219Z,-2.88
2022-12-14T08:19:21.249Z,-2.89
2022-12-14T08:20:21.220Z,-2.90
2022-12-14T08:21:21.255Z,-2.90
2022-12-14T08:22:21.220Z,-2.92
2022-12-14T08:23:21.223Z,-2.94
2022-12-14T08:24:21.274Z,-2.96
2022-12-14T08:25:21.235Z,-2.94
2022-12-14T08:26:21.258Z,-2.94
2022-12-14T08:27:21.264Z,-2.95
2022-12-14T08:28:21.260Z,-2.96
2022-12-14T08:29:21.247Z,-2.96
2022-12-14T08:30:21.252Z,-2.99
2022-12-14T08:31:21.310Z,-3.00
2022-12-14T08:32:21.255Z,-3.04
2022-12-14T08:33:21.262Z,-3.08
2022-12-14T08:34:21.265Z,-3.10
2022-12-14T08:35:21.313Z,-3.12
2022-12-14T08:36:21.270Z,-3.16
2022-12-14T08:37:21.278Z,-3.20
2022-12-14T08:38:21.291Z,-3.23
2022-12-14T08:39:21.303Z,-3.27
2022-12-14T08:40:21.315Z,-3.28
2022-12-14T08:41:21.332Z,-3.30
2022-12-14T08:42:21.350Z,-3.31
2022-12-14T08:43:24.923Z,-3.33
2022-12-14T08:44:21.399Z,-3.34
2022-12-14T08:45:21.380Z,-3.38
2022-12-14T08:46:21.418Z,-3.42
2022-12-14T08:47:21.350Z,-3.43
2022-12-14T08:48:21.354Z,-3.41
2022-12-14T08:49:21.382Z,-3.40
2022-12-14T08:50:21.381Z,-3.42
2022-12-14T08:51:21.358Z,-3.43
2022-12-14T08:52:21.369Z,-3.42
2022-12-14T08:53:21.365Z,-3.43
2022-12-14T08:54:21.366Z,-3.44
2022-12-14T08:55:27.552Z,-3.44
2022-12-14T08:56:21.493Z,-3.46
2022-12-14T08:57:21.354Z,-3.46
2022-12-14T08:58:21.349Z,-3.46
2022-12-14T08:59:51.924Z,-3.46
2022-12-14T09:00:21.456Z,-3.47
2022-12-14T09:01:22.983Z,-3.47
2022-12-14T09:02:21.520Z,-3.49
2022-12-14T09:03:21.449Z,-3.50
2022-12-14T09:04:21.379Z,-3.52
2022-12-14T09:05:21.378Z,-3.52
2022-12-14T09:06:21.575Z,-3.51
2022-12-14T09:07:21.346Z,-3.51
2022-12-14T09:08:21.367Z,-3.50
2022-12-14T09:09:21.360Z,-3.46
2022-12-14T09:10:21.415Z,-3.46
2022-12-14T09:11:21.376Z,-3.45
2022-12-14T09:12:21.537Z,-3.46
2022-12-14T09:13:21.385Z,-3.47
2022-12-14T09:14:21.384Z,-3.47
2022-12-14T09:15:21.393Z,-3.47
2022-12-14T09:16:21.407Z,-3.46
2022-12-14T09:17:21.541Z,-3.47
2022-12-14T09:18:21.462Z,-3.48
2022-12-14T09:19:21.404Z,-3.47
2022-12-14T09:20:21.373Z,-3.47
2022-12-14T09:21:21.374Z,-3.46
2022-12-14T09:22:21.803Z,-3.46
2022-12-14T09:23:21.397Z,-3.44
2022-12-14T09:24:21.403Z,-3.42
2022-12-14T09:25:21.375Z,-3.39
2022-12-14T09:26:21.400Z,-3.39
2022-12-14T09:27:21.401Z,-3.39
2022-12-14T09:28:21.413Z,-3.37
2022-12-14T09:29:21.394Z,-3.35
2022-12-14T09:30:26.365Z,-3.33
2022-12-14T09:31:21.447Z,-3.30
2022-12-14T09:32:21.383Z,-3.28
2022-12-14T09:33:21.404Z,-3.26
2022-12-14T09:34:21.391Z,-3.22
2022-12-14T09:35:21.405Z,-3.19
2022-12-14T09:36:21.411Z,-3.16
2022-12-14T09:37:21.395Z,-3.12
2022-12-14T09:38:21.556Z,-3.14
2022-12-14T09:39:21.632Z,-3.14
2022-12-14T09:40:21.399Z,-3.12
2022-12-14T09:41:21.441Z,-3.09
2022-12-14T09:42:21.396Z,-3.05
2022-12-14T09:43:21.387Z,-3.03
2022-12-14T09:44:21.525Z,-3.01
2022-12-14T09:45:21.399Z,-3.00
2022-12-14T09:46:21.418Z,-3.00
2022-12-14T09:47:21.432Z,-2.96
2022-12-14T09:48:21.406Z,-2.96
2022-12-14T09:49:21.553Z,-2.92
2022-12-14T09:50:21.445Z,-2.93
2022-12-14T09:51:21.432Z,-2.94
2022-12-14T09:52:21.415Z,-2.94
2022-12-14T09:53:21.399Z,-2.92
2022-12-14T09:54:21.457Z,-2.90
2022-12-14T09:55:21.410Z,-2.90
2022-12-14T09:56:21.404Z,-2.90
2022-12-14T09:57:21.403Z,-2.88
2022-12-14T09:58:21.412Z,-2.89
2022-12-14T09:59:21.527Z,-2.91
2022-12-14T10:00:21.453Z,-2.92
2022-12-14T10:01:21.521Z,-2.92
2022-12-14T10:02:30.892Z,-2.92
2022-12-14T10:03:21.631Z,-2.93
2022-12-14T10:04:21.457Z,-2.91
2022-12-14T10:05:21.428Z,-2.92
2022-12-14T10:06:21.433Z,-2.94
2022-12-14T10:07:21.469Z,-2.95
2022-12-14T10:08:21.453Z,-2.96
2022-12-14T10:09:21.427Z,-2.94
2022-12-14T10:10:21.434Z,-2.94
2022-12-14T10:11:21.433Z,-2.94
2022-12-14T10:12:21.424Z,-2.92
2022-12-14T10:13:21.475Z,-2.90
2022-12-14T10:14:21.466Z,-2.87
2022-12-14T10:15:21.420Z,-2.85
2022-12-14T10:16:21.483Z,-2.82
2022-12-14T10:17:21.464Z,-2.80
2022-12-14T10:18:56.956Z,-2.78
2022-12-14T10:19:21.556Z,-2.76
2022-12-14T10:20:21.452Z,-2.73
2022-12-14T10:21:21.433Z,-2.72
2022-12-14T10:22:21.423Z,-2.67
2022-12-14T10:23:23.223Z,-2.63
2022-12-14T10:24:21.440Z,-2.58
2022-12-14T10:25:21.435Z,-2.53
2022-12-14T10:26:21.453Z,-2.50
2022-12-14T10:27:21.435Z,-2.47
2022-12-14T10:28:21.427Z,-2.44
2022-12-14T10:29:21.441Z,-2.42
2022-12-14T10:30:21.563Z,-2.42
2022-12-14T10:31:21.471Z,-2.42
2022-12-14T10:32:21.427Z,-2.40
2022-12-14T10:33:21.443Z,-2.39
2022-12-14T10:34:21.435Z,-2.38
2022-12-14T10:35:21.495Z,-2.37
2022-12-14T10:36:21.455Z,-2.38
2022-12-14T10:37:21.437Z,-2.38
2022-12-14T10:38:21.463Z,-2.35
2022-12-14T10:39:21.461Z,-2.34
2022-12-14T10:40:32.618Z,-2.35
2022-12-14T10:41:21.431Z,-2.34
2022-12-14T10:42:21.449Z,-2.34
2022-12-14T10:43:21.517Z,-2.32
2022-12-14T10:44:21.490Z,-2.32
2022-12-14T10:45:41.125Z,-2.30
2022-12-14T10:46:21.518Z,-2.29
2022-12-14T10:47:21.464Z,-2.29
2022-12-14T10:48:21.447Z,-2.32
2022-12-14T10:49:21.459Z,-2.35
2022-12-14T10:50:21.444Z,-2.35
2022-12-14T10:51:21.451Z,-2.34
2022-12-14T10:52:21.491Z,-2.32
2022-12-14T10:53:21.467Z,-2.31
2022-12-14T10:54:21.454Z,-2.29
2022-12-14T10:55:21.443Z,-2.29
2022-12-14T10:56:21.518Z,-2.28
2022-12-14T10:57:21.460Z,-2.25
2022-12-14T10:58:21.494Z,-2.22
2022-12-14T10:59:21.469Z,-2.19
2022-12-14T11:00:23.421Z,-2.16
2022-12-14T11:01:21.600Z,-2.13
2022-12-14T11:02:21.835Z,-2.09
2022-12-14T11:03:21.522Z,-2.06
2022-12-14T11:04:21.468Z,-2.04
2022-12-14T11:05:21.463Z,-2.03
2022-12-14T11:06:21.490Z,-2.02
2022-12-14T11:07:21.477Z,-2.00
2022-12-14T11:08:21.479Z,-2.02
2022-12-14T11:09:21.490Z,-2.05
2022-12-14T11:10:21.479Z,-2.07
2022-12-14T11:11:21.539Z,-2.06
2022-12-14T11:12:21.610Z,-2.06
2022-12-14T11:13:21.460Z,-2.05
2022-12-14T11:14:21.479Z,-2.04
2022-12-14T11:15:21.518Z,-2.04
2022-12-14T11:16:21.499Z,-2.02
2022-12-14T11:17:21.637Z,-2.00
2022-12-14T11:18:21.539Z,-2.00
2022-12-14T11:19:21.487Z,-1.98
2022-12-14T11:20:21.470Z,-1.97
2022-12-14T11:21:21.486Z,-1.98
2022-12-14T11:22:22.688Z,-1.98
2022-12-14T11:23:21.454Z,-1.98
2022-12-14T11:24:21.556Z,-2.00
2022-12-14T11:25:21.550Z,-1.98
2022-12-14T11:26:21.508Z,-1.97
2022-12-14T11:27:21.482Z,-1.97
2022-12-14T11:28:21.590Z,-1.92
2022-12-14T11:29:21.504Z,-1.88
2022-12-14T11:30:21.563Z,-1.84
2022-12-14T11:31:21.540Z,-1.79
2022-12-14T11:32:21.503Z,-1.77
2022-12-14T11:33:21.492Z,-1.77
2022-12-14T11:34:22.331Z,-1.80
2022-12-14T11:35:21.506Z,-1.80
2022-12-14T11:36:21.505Z,-1.81
2022-12-14T11:37:21.505Z,-1.78
2022-12-14T11:38:21.545Z,-1.71
2022-12-14T11:39:21.536Z,-1.65
2022-12-14T11:40:21.577Z,-1.59
2022-12-14T11:41:21.549Z,-1.55
2022-12-14T11:42:21.571Z,-1.50
2022-12-14T11:43:21.576Z,-1.42
2022-12-14T11:44:21.601Z,-1.33
2022-12-14T11:45:21.602Z,-1.26
2022-12-14T11:46:21.663Z,-1.19
2022-12-14T11:47:21.628Z,-1.15
2022-12-14T11:48:21.618Z,-1.13
2022-12-14T11:49:21.653Z,-1.11
2022-12-14T11:50:21.668Z,-1.08
2022-12-14T11:51:21.665Z,-1.00
2022-12-14T11:52:21.701Z,-0.99
2022-12-14T11:53:21.686Z,-0.98
2022-12-14T11:54:21.725Z,-0.91
2022-12-14T11:55:26.687Z,-0.84
2022-12-14T11:56:21.725Z,-0.79
2022-12-14T11:57:21.746Z,-0.77
2022-12-14T11:58:21.728Z,-0.75
2022-12-14T11:59:21.736Z,-0.71
2022-12-14T12:00:21.711Z,-0.70
2022-12-14T12:01:21.819Z,-0.74
2022-12-14T12:02:21.769Z,-0.80
2022-12-14T12:03:21.872Z,-0.88
2022-12-14T12:04:21.754Z,-0.95
2022-12-14T12:05:21.732Z,-1.00
2022-12-14T12:06:21.736Z,-1.03
2022-12-14T12:07:21.728Z,-1.06
2022-12-14T12:08:21.723Z,-1.10
2022-12-14T12:09:21.789Z,-1.14
2022-12-14T12:10:21.752Z,-1.16
2022-12-14T12:11:21.749Z,-1.18
2022-12-14T12:12:21.733Z,-1.21
2022-12-14T12:13:21.759Z,-1.22
2022-12-14T12:14:21.766Z,-1.23
2022-12-14T12:15:21.740Z,-1.21
2022-12-14T12:16:21.953Z,-1.20
2022-12-14T12:17:21.782Z,-1.17
2022-12-14T12:18:21.722Z,-1.15
2022-12-14T12:19:21.747Z,-1.12
2022-12-14T12:20:21.757Z,-1.11
2022-12-14T12:21:21.744Z,-1.12
2022-12-14T12:22:21.810Z,-1.13
2022-12-14T12:23:21.759Z,-1.12
2022-12-14T12:24:21.743Z,-1.07
2022-12-14T12:25:28.444Z,-1.01
2022-12-14T12:26:21.742Z,-1.01
2022-12-14T12:27:21.801Z,-1.01
2022-12-14T12:28:21.746Z,-0.99
2022-12-14T12:29:21.748Z,-0.97
2022-12-14T12:30:21.740Z,-0.96
2022-12-14T12:31:21.837Z,-0.95
2022-12-14T12:32:21.766Z,-0.94
2022-12-14T12:33:21.749Z,-0.95
2022-12-14T12:34:21.808Z,-0.95
2022-12-14T12:35:21.759Z,-0.91
2022-12-14T12:36:23.918Z,-0.92
2022-12-14T12:37:26.867Z,-0.86
2022-12-14T12:38:21.834Z,-0.80
2022-12-14T12:39:21.829Z,-0.76
2022-12-14T12:40:21.843Z,-0.75
2022-12-14T12:41:21.836Z,-0.74
2022-12-14T12:42:21.938Z,-0.75
2022-12-14T12:43:21.854Z,-0.76
2022-12-14T12:44:21.829Z,-0.79
2022-12-14T12:45:21.867Z,-0.80
2022-12-14T12:46:21.897Z,-0.82
2022-12-14T12:47:27.963Z,-0.80
2022-12-14T12:48:21.854Z,-0.76
2022-12-14T12:49:21.848Z,-0.74
2022-12-14T12:50:21.852Z,-0.70
2022-12-14T12:51:21.844Z,-0.67
2022-12-14T12:52:21.866Z,-0.67